Heer Park, New York
Current Conditions -  °F | °C
As of 3:53 AM on Friday 21 Nov 2014 (Local Time) from KFRG Reporting Station
Clear Clear  
Wind Chill: 19°   Ceiling: Unl
Heat Index: 29°   Visibility: 10mi
Dew Point:   Wind: 13mph
Humidity: 41%   Direction: 300°WNW
Pressure: 30.09"   Gusts: 20mph
Location:  40.6894°N, 73.3745°W
Report Text: KFRG 210853Z AUTO 30011G17KT 10SM CLR M02/M13 A3009 RMK AO2 SLP189 T10171133 53020
Loading
Personal Weather Stations






























Interactive Weather Map New forecast layout! Learn more

10-Day Weather Forecast

Advertisements
Track Severe Weather on mobile